Time;durP1;ratioP1;P1;durP2;ratioP2;P2;SDS_P1;SDS_P2;PMS_P1;PMS_P2;Temp;Humidity;BMP_temperature;BMP_pressure;BME280_temperature;BME280_humidity;BME280_pressure;Samples;Min_cycle;Max_cycle;Signal;HPM_P1;HPM_P2
2022/07/09 00:02:12;;;;;;;11.97;10.80;;;;;;;16.67;100.00;92744.78;5003877;28;20227;-77
2022/07/09 00:04:38;;;;;;;11.67;10.87;;;;;;;16.77;100.00;92768.97;5000167;28;20202;-77
2022/07/09 00:07:03;;;;;;;12.00;10.93;;;;;;;16.41;100.00;92736.84;4999740;28;20224;-77
2022/07/09 00:09:29;;;;;;;11.20;10.50;;;;;;;16.72;100.00;92752.53;5000266;28;20227;-77
2022/07/09 00:11:54;;;;;;;11.90;11.00;;;;;;;16.70;100.00;92749.44;5001763;28;20227;-77
2022/07/09 00:14:20;;;;;;;12.00;10.90;;;;;;;16.60;100.00;92771.63;5002404;28;20199;-78
2022/07/09 00:16:46;;;;;;;12.50;11.60;;;;;;;16.63;100.00;92765.72;4981822;28;20224;-77
2022/07/09 00:19:11;;;;;;;11.27;10.50;;;;;;;16.60;100.00;92755.81;4990484;28;20180;-76
2022/07/09 00:21:36;;;;;;;12.10;11.20;;;;;;;16.47;100.00;92727.72;4989733;28;20224;-77
2022/07/09 00:24:02;;;;;;;12.73;11.63;;;;;;;16.63;100.00;92762.31;4988815;28;20180;-77
2022/07/09 00:26:27;;;;;;;12.60;11.60;;;;;;;16.69;100.00;92761.06;4984311;28;20278;-76
2022/07/09 00:28:53;;;;;;;12.00;11.17;;;;;;;16.86;100.00;92764.47;4981681;28;20248;-76
2022/07/09 00:31:18;;;;;;;13.23;12.33;;;;;;;16.72;100.00;92758.56;4981645;28;20231;-76
2022/07/09 00:33:43;;;;;;;13.47;12.17;;;;;;;16.72;100.00;92747.25;4987573;28;20189;-76
2022/07/09 00:36:09;;;;;;;12.73;11.83;;;;;;;16.64;100.00;92751.44;4985788;28;20236;-77
2022/07/09 00:38:34;;;;;;;11.83;11.03;;;;;;;16.50;100.00;92735.00;4985066;28;20196;-77
2022/07/09 00:41:01;;;;;;;12.57;11.77;;;;;;;16.71;100.00;92741.22;4983973;28;20224;-77
2022/07/09 00:43:26;;;;;;;12.10;11.30;;;;;;;16.77;100.00;92757.63;4985273;28;20189;-76
2022/07/09 00:45:52;;;;;;;11.03;10.13;;;;;;;16.48;100.00;92736.44;4985588;28;20267;-77
2022/07/09 00:48:19;;;;;;;12.07;11.17;;;;;;;16.27;100.00;92740.72;4985525;28;20181;-77
2022/07/09 00:50:45;;;;;;;11.60;10.80;;;;;;;16.46;100.00;92742.00;4983901;28;20283;-77
2022/07/09 00:53:14;;;;;;;13.03;11.93;;;;;;;16.34;100.00;92743.69;4985460;28;20207;-77
2022/07/09 00:55:40;;;;;;;13.30;12.37;;;;;;;16.33;100.00;92740.25;4983248;28;20193;-77
2022/07/09 00:58:07;;;;;;;13.23;12.13;;;;;;;16.30;100.00;92719.03;4984064;28;20197;-77
2022/07/09 01:00:34;;;;;;;12.53;11.63;;;;;;;16.35;100.00;92700.44;4984026;28;20315;-75
2022/07/09 01:03:00;;;;;;;13.10;12.03;;;;;;;16.43;100.00;92718.88;4984437;28;20185;-77
2022/07/09 01:05:25;;;;;;;11.93;11.13;;;;;;;16.51;100.00;92714.72;4986264;28;20199;-77
2022/07/09 01:07:51;;;;;;;11.37;10.67;;;;;;;16.64;100.00;92717.19;4982609;28;20228;-77
2022/07/09 01:10:17;;;;;;;11.03;10.33;;;;;;;16.69;100.00;92721.50;4986640;28;20283;-77
2022/07/09 01:12:44;;;;;;;11.83;10.70;;;;;;;16.81;100.00;92709.22;4985193;28;20236;-77
2022/07/09 01:15:10;;;;;;;10.47;9.77;;;;;;;16.90;100.00;92720.53;4983084;28;20223;-77
2022/07/09 01:17:40;;;;;;;9.70;9.10;;;;;;;16.76;100.00;92727.84;4984544;28;20224;-78
2022/07/09 01:20:06;;;;;;;10.23;9.63;;;;;;;16.66;100.00;92716.88;4981482;28;20219;-77
2022/07/09 01:22:32;;;;;;;9.47;8.97;;;;;;;16.67;100.00;92718.44;4982350;28;20220;-77
2022/07/09 01:25:00;;;;;;;10.03;9.43;;;;;;;16.63;100.00;92718.28;4987180;28;20201;-77
2022/07/09 01:27:25;;;;;;;11.43;10.73;;;;;;;16.15;100.00;92688.66;4983483;28;20232;-77
2022/07/09 01:29:50;;;;;;;10.37;9.57;;;;;;;16.31;100.00;92720.59;4985728;28;20279;-78
2022/07/09 01:32:16;;;;;;;11.23;10.53;;;;;;;16.66;100.00;92701.03;4985760;28;20231;-77
2022/07/09 01:34:42;;;;;;;11.00;10.27;;;;;;;16.55;100.00;92700.59;4982716;28;20192;-77
2022/07/09 01:37:07;;;;;;;11.07;10.37;;;;;;;16.58;100.00;92715.00;4985053;28;20251;-77
2022/07/09 01:39:33;;;;;;;10.17;9.57;;;;;;;16.33;100.00;92698.09;4986075;28;20194;-77
2022/07/09 01:41:58;;;;;;;11.57;10.77;;;;;;;15.98;100.00;92697.31;4983597;28;20228;-77
2022/07/09 01:44:24;;;;;;;11.23;10.53;;;;;;;16.13;100.00;92677.66;4985291;28;20196;-77
2022/07/09 01:46:49;;;;;;;11.63;10.83;;;;;;;16.26;100.00;92703.09;4982469;28;20291;-77
2022/07/09 01:49:14;;;;;;;11.27;10.57;;;;;;;16.00;100.00;92670.66;4988734;28;20287;-77
2022/07/09 01:51:40;;;;;;;11.03;10.43;;;;;;;16.29;100.00;92696.41;4983940;28;20217;-76
2022/07/09 01:54:05;;;;;;;11.30;10.70;;;;;;;16.46;100.00;92706.97;4984548;28;20201;-77
2022/07/09 01:56:31;;;;;;;9.90;9.20;;;;;;;16.24;100.00;92655.19;4983524;28;20221;-78
2022/07/09 01:58:56;;;;;;;10.60;10.00;;;;;;;16.46;100.00;92686.66;4986423;28;20192;-78
2022/07/09 02:01:22;;;;;;;11.83;11.03;;;;;;;16.54;100.00;92699.06;4986118;28;20228;-77
2022/07/09 02:03:47;;;;;;;11.67;10.87;;;;;;;16.51;100.00;92704.97;4984047;28;20201;-77
2022/07/09 02:06:13;;;;;;;12.00;11.20;;;;;;;16.31;100.00;92668.66;4985002;28;20229;-77
2022/07/09 02:08:39;;;;;;;11.77;10.77;;;;;;;16.37;100.00;92711.44;4982706;28;20255;-77
2022/07/09 02:11:05;;;;;;;10.73;10.13;;;;;;;16.45;100.00;92702.78;4983138;28;20243;-76
2022/07/09 02:13:31;;;;;;;12.57;11.47;;;;;;;16.42;100.00;92685.69;4984990;28;20192;-77
2022/07/09 02:15:56;;;;;;;10.33;9.63;;;;;;;16.46;100.00;92691.16;4984776;28;20220;-76
2022/07/09 02:18:21;;;;;;;11.63;10.87;;;;;;;16.52;100.00;92709.13;4981516;28;20195;-77
2022/07/09 02:20:47;;;;;;;11.17;10.50;;;;;;;16.63;100.00;92718.28;4983349;28;20231;-77
2022/07/09 02:23:12;;;;;;;10.87;10.17;;;;;;;16.46;100.00;92696.41;4984269;28;20184;-78
2022/07/09 02:25:38;;;;;;;11.00;10.30;;;;;;;16.53;100.00;92718.56;4964867;28;20223;-77
2022/07/09 02:28:04;;;;;;;10.17;9.57;;;;;;;16.28;100.00;92716.69;4982777;28;20217;-77
2022/07/09 02:30:29;;;;;;;10.63;9.97;;;;;;;16.15;100.00;92724.75;4984786;28;21171;-77
2022/07/09 02:32:55;;;;;;;11.33;10.53;;;;;;;16.09;100.00;92697.81;4966418;28;20196;-77
2022/07/09 02:35:20;;;;;;;10.93;10.33;;;;;;;15.78;100.00;92681.38;4985578;28;20228;-77
2022/07/09 02:37:46;;;;;;;10.57;9.90;;;;;;;16.19;100.00;92721.19;4985217;28;20225;-75
2022/07/09 02:40:14;;;;;;;10.30;9.60;;;;;;;16.11;100.00;92726.47;4981830;28;20192;-77
2022/07/09 02:42:39;;;;;;;9.60;9.07;;;;;;;15.99;100.00;92724.44;4982172;28;20225;-77
2022/07/09 02:45:05;;;;;;;11.10;10.40;;;;;;;16.16;100.00;92719.19;4982487;28;20216;-77
2022/07/09 02:47:31;;;;;;;10.17;9.57;;;;;;;16.41;100.00;92726.31;4983074;28;20224;-77
2022/07/09 02:49:56;;;;;;;10.63;9.93;;;;;;;16.46;100.00;92733.31;4984384;28;20299;-77
2022/07/09 02:52:21;;;;;;;9.63;9.07;;;;;;;16.30;100.00;92719.81;4983874;28;20295;-77
2022/07/09 02:54:47;;;;;;;10.20;9.60;;;;;;;16.45;100.00;92742.31;4980876;28;20185;-77
2022/07/09 02:57:13;;;;;;;10.23;9.63;;;;;;;16.45;100.00;92737.81;4983436;28;20983;-77
2022/07/09 02:59:38;;;;;;;11.00;10.20;;;;;;;16.30;100.00;92725.06;4982124;28;20191;-77
2022/07/09 03:02:04;;;;;;;9.60;9.10;;;;;;;16.38;100.00;92753.28;4983642;28;20227;-77
2022/07/09 03:04:29;;;;;;;10.37;9.77;;;;;;;16.23;100.00;92724.00;4980420;28;20193;-78
2022/07/09 03:06:55;;;;;;;11.10;10.23;;;;;;;15.98;100.00;92722.91;4980866;28;20255;-78
2022/07/09 03:09:20;;;;;;;10.30;9.70;;;;;;;16.40;100.00;92751.13;4980937;28;20223;-77
2022/07/09 03:11:45;;;;;;;9.77;9.27;;;;;;;16.31;100.00;92752.22;4979160;28;20248;-77
2022/07/09 03:14:11;;;;;;;10.27;9.67;;;;;;;16.40;100.00;92753.75;4982109;28;20249;-77
2022/07/09 03:16:36;;;;;;;10.73;10.13;;;;;;;16.27;100.00;92736.22;4981045;28;20226;-77
2022/07/09 03:19:02;;;;;;;10.57;9.87;;;;;;;16.47;100.00;92754.09;4982340;28;20192;-77
2022/07/09 03:21:27;;;;;;;10.20;9.60;;;;;;;16.36;100.00;92744.16;4982188;28;20274;-77
2022/07/09 03:23:52;;;;;;;10.17;9.57;;;;;;;16.26;100.00;92734.69;4982011;28;20192;-77
2022/07/09 03:26:34;;;;;;;11.57;10.87;;;;;;;16.14;100.00;92747.69;4982568;28;20236;-76
2022/07/09 03:28:59;;;;;;;9.73;9.13;;;;;;;16.31;100.00;92747.69;4981801;28;20247;-75
2022/07/09 03:31:25;;;;;;;10.90;9.87;;;;;;;16.40;100.00;92745.06;4990231;28;20231;-77
2022/07/09 03:33:53;;;;;;;10.63;10.03;;;;;;;16.52;100.00;92735.50;5001243;28;20279;-77
2022/07/09 03:36:18;;;;;;;10.57;10.03;;;;;;;16.40;100.00;92724.78;5001100;28;20291;-77
2022/07/09 03:38:44;;;;;;;11.23;10.43;;;;;;;16.56;100.00;92736.41;5001095;28;20206;-76
2022/07/09 03:41:09;;;;;;;9.60;9.10;;;;;;;16.36;100.00;92702.75;5002317;28;20242;-77
2022/07/09 03:43:35;;;;;;;10.73;10.07;;;;;;;16.51;100.00;92718.13;5000785;28;20191;-77
2022/07/09 03:46:00;;;;;;;9.80;9.20;;;;;;;16.29;100.00;92722.75;5001187;28;20255;-77
2022/07/09 03:48:25;;;;;;;10.00;9.50;;;;;;;16.63;100.00;92735.94;5000235;28;20958;-76
2022/07/09 03:50:51;;;;;;;10.73;10.13;;;;;;;16.37;100.00;92741.22;4999273;28;20220;-77
2022/07/09 03:53:16;;;;;;;10.80;10.20;;;;;;;16.36;100.00;92723.81;5001426;28;20198;-77
2022/07/09 03:55:42;;;;;;;11.67;10.97;;;;;;;16.63;100.00;92744.63;5000974;28;20231;-77
2022/07/09 03:58:07;;;;;;;11.00;10.30;;;;;;;16.63;100.00;92744.63;5002517;28;20222;-77
2022/07/09 04:00:33;;;;;;;11.80;10.90;;;;;;;16.62;100.00;92737.81;4999651;28;20190;-78
2022/07/09 04:02:58;;;;;;;10.80;10.20;;;;;;;16.25;100.00;92733.13;5002723;28;20184;-76
2022/07/09 04:05:24;;;;;;;12.50;11.40;;;;;;;16.58;100.00;92747.41;5000040;28;20251;-78
2022/07/09 04:07:49;;;;;;;11.33;10.53;;;;;;;16.54;100.00;92751.78;5001692;28;20742;-77
2022/07/09 04:10:15;;;;;;;10.90;9.80;;;;;;;16.34;100.00;92720.75;4999111;28;20207;-77
2022/07/09 04:12:40;;;;;;;10.87;10.17;;;;;;;16.75;100.00;92734.22;5001602;28;20224;-76
2022/07/09 04:15:06;;;;;;;11.87;11.07;;;;;;;17.02;100.00;92749.69;5000733;28;20196;-77
2022/07/09 04:17:31;;;;;;;9.77;9.17;;;;;;;16.94;100.00;92750.47;5000444;28;20235;-73
2022/07/09 04:19:57;;;;;;;10.47;9.87;;;;;;;16.78;100.00;92752.06;5000393;28;20217;-70
2022/07/09 04:22:23;;;;;;;10.20;9.50;;;;;;;16.81;100.00;92756.69;5003467;28;20224;-71
2022/07/09 04:24:48;;;;;;;10.80;10.17;;;;;;;16.66;100.00;92748.50;5001717;28;20196;-71
2022/07/09 04:27:13;;;;;;;9.83;9.23;;;;;;;16.74;100.00;92766.97;5000391;28;20229;-71
2022/07/09 04:29:39;;;;;;;10.50;9.90;;;;;;;16.55;100.00;92768.34;5001011;28;20215;-71
2022/07/09 04:32:04;;;;;;;10.87;10.17;;;;;;;16.82;100.00;92762.75;5000409;28;20219;-71
2022/07/09 04:34:30;;;;;;;10.67;10.03;;;;;;;16.86;100.00;92777.63;5004203;28;20199;-72
2022/07/09 04:36:55;;;;;;;10.80;10.17;;;;;;;16.78;100.00;92765.22;5001669;28;20227;-71
2022/07/09 04:39:24;;;;;;;10.17;9.47;;;;;;;16.57;100.00;92751.16;5000902;28;20260;-70
2022/07/09 04:41:49;;;;;;;10.77;10.07;;;;;;;16.91;100.00;92761.66;5002385;28;20224;-71
2022/07/09 04:44:15;;;;;;;10.03;9.43;;;;;;;17.03;100.00;92761.78;5002619;28;20226;-71
2022/07/09 04:46:41;;;;;;;10.27;9.57;;;;;;;16.88;100.00;92754.38;5003162;28;20247;-71
2022/07/09 04:49:06;;;;;;;10.00;9.40;;;;;;;16.94;100.00;92747.84;5004348;28;20266;-71
2022/07/09 04:51:32;;;;;;;11.03;10.37;;;;;;;16.86;100.00;92758.41;5005670;28;20227;-71
2022/07/09 04:53:57;;;;;;;10.33;9.77;;;;;;;16.91;100.00;92764.31;5002022;28;20177;-71
2022/07/09 04:56:23;;;;;;;11.43;10.73;;;;;;;16.59;100.00;92756.88;5001185;28;20219;-73
2022/07/09 04:58:54;;;;;;;9.57;9.07;;;;;;;16.80;100.00;92755.16;5004408;28;20197;-72
2022/07/09 05:01:20;;;;;;;10.47;9.80;;;;;;;16.89;100.00;92741.94;5000361;28;20234;-72
2022/07/09 05:03:46;;;;;;;10.60;9.90;;;;;;;16.89;100.00;92758.56;4996395;28;20271;-71
2022/07/09 05:06:16;;;;;;;10.53;9.83;;;;;;;16.80;100.00;92760.44;5000347;28;20231;-71
2022/07/09 05:08:42;;;;;;;9.63;9.03;;;;;;;16.94;100.00;92766.31;5001949;28;20278;-70
2022/07/09 05:11:07;;;;;;;10.60;9.97;;;;;;;17.24;100.00;92760.03;5000482;28;20228;-71
2022/07/09 05:13:33;;;;;;;10.47;9.87;;;;;;;17.31;100.00;92765.59;5002770;28;20231;-70
2022/07/09 05:15:58;;;;;;;10.53;9.83;;;;;;;17.34;100.00;92772.88;5002199;28;20241;-69
2022/07/09 05:18:24;;;;;;;11.57;10.80;;;;;;;17.32;100.00;92772.41;5004000;28;20193;-70
2022/07/09 05:20:49;;;;;;;11.13;10.53;;;;;;;17.15;99.84;92740.78;4982851;28;20221;-70
2022/07/09 05:23:15;;;;;;;10.63;10.03;;;;;;;16.95;100.00;92761.81;4983166;28;20188;-71
2022/07/09 05:25:40;;;;;;;12.43;11.73;;;;;;;16.63;100.00;92752.53;4986012;28;20222;-70
2022/07/09 05:28:05;;;;;;;11.33;10.43;;;;;;;16.96;100.00;92769.41;5003493;28;20250;-70
2022/07/09 05:30:36;;;;;;;10.57;9.97;;;;;;;16.51;100.00;92772.69;5002230;28;20242;-70
2022/07/09 05:33:05;;;;;;;9.90;9.30;;;;;;;16.39;100.00;92786.44;5005478;28;20244;-70
2022/07/09 05:35:31;;;;;;;10.03;9.40;;;;;;;16.63;100.00;92776.28;5004599;28;20270;-71
2022/07/09 05:37:56;;;;;;;10.27;9.57;;;;;;;16.78;100.00;92790.84;5005060;28;20195;-71
2022/07/09 05:40:22;;;;;;;10.90;10.20;;;;;;;16.78;100.00;92794.25;5003421;28;20187;-70
2022/07/09 05:42:47;;;;;;;11.07;10.37;;;;;;;16.73;100.00;92791.75;5002026;28;20796;-70
2022/07/09 05:45:12;;;;;;;10.60;10.00;;;;;;;16.53;100.00;92797.66;5002341;28;20279;-70
2022/07/09 05:47:38;;;;;;;10.57;9.97;;;;;;;16.64;100.00;92793.63;5001934;28;20222;-70
2022/07/09 05:50:04;;;;;;;9.93;9.43;;;;;;;16.59;100.00;92796.41;5004638;28;20223;-69
2022/07/09 05:52:29;;;;;;;10.43;9.83;;;;;;;16.82;100.00;92797.03;5002302;28;20238;-70
2022/07/09 05:54:55;;;;;;;9.87;9.37;;;;;;;16.55;100.00;92794.72;5002770;28;21185;-70
2022/07/09 05:57:20;;;;;;;9.43;8.83;;;;;;;16.59;100.00;92800.94;5004102;28;20219;-68
2022/07/09 05:59:46;;;;;;;11.27;10.50;;;;;;;16.39;100.00;92804.91;5006288;28;20207;-73
2022/07/09 06:02:11;;;;;;;10.33;9.73;;;;;;;16.62;100.00;92795.03;4999573;28;20237;-70
2022/07/09 06:04:37;;;;;;;8.27;7.77;;;;;;;16.38;100.00;92790.19;5003707;28;20188;-70
2022/07/09 06:07:02;;;;;;;9.37;8.87;;;;;;;16.82;100.00;92797.81;5004756;28;20231;-71
2022/07/09 06:09:28;;;;;;;9.13;8.63;;;;;;;16.53;100.00;92795.00;5004776;28;20234;-70
2022/07/09 06:11:53;;;;;;;9.90;9.27;;;;;;;16.40;100.00;92788.03;5004217;28;20226;-73
2022/07/09 06:14:19;;;;;;;9.70;9.20;;;;;;;16.72;100.00;92798.13;4986049;28;20195;-72
2022/07/09 06:16:46;;;;;;;9.10;8.60;;;;;;;16.31;100.00;92805.66;4998810;28;20280;-72
2022/07/09 06:19:16;;;;;;;9.03;8.53;;;;;;;16.63;100.00;92807.91;5005072;28;20210;-72
2022/07/09 06:21:42;;;;;;;9.60;9.10;;;;;;;16.73;100.00;92804.94;5005832;28;20765;-72
2022/07/09 06:24:07;;;;;;;10.50;9.63;;;;;;;16.89;100.00;92810.50;5004226;28;20204;-71
2022/07/09 06:26:33;;;;;;;8.90;8.40;;;;;;;16.85;100.00;92805.09;5002178;28;20322;-72
2022/07/09 06:28:59;;;;;;;8.47;8.07;;;;;;;16.67;100.00;92814.09;5000855;28;20216;-73
2022/07/09 06:31:25;;;;;;;9.07;8.47;;;;;;;16.49;100.00;92815.19;5003008;28;20273;-73
2022/07/09 06:33:50;;;;;;;9.53;9.03;;;;;;;16.62;100.00;92809.00;5004483;28;20176;-73
2022/07/09 06:36:16;;;;;;;9.07;8.47;;;;;;;16.61;100.00;92820.59;5006059;28;20246;-72
2022/07/09 06:41:25;;;;;;;9.17;8.70;;;;;;;16.12;100.00;92792.00;5000897;28;20230;-73
2022/07/09 06:43:50;;;;;;;9.20;8.63;;;;;;;16.49;100.00;92819.66;5003372;28;20187;-72
2022/07/09 06:46:16;;;;;;;8.77;8.37;;;;;;;16.36;100.00;92815.31;5001430;28;20219;-74
2022/07/09 06:48:41;;;;;;;9.43;8.83;;;;;;;16.57;100.00;92803.88;5003518;28;20192;-73
2022/07/09 06:51:06;;;;;;;10.53;9.93;;;;;;;16.79;100.00;92814.28;5001509;28;20224;-74
2022/07/09 06:53:32;;;;;;;10.60;10.00;;;;;;;17.14;100.00;92828.97;5003976;28;20211;-74
2022/07/09 06:55:57;;;;;;;10.10;9.47;;;;;;;16.99;99.66;92800.44;5003744;28;20232;-75
2022/07/09 06:58:23;;;;;;;10.07;9.57;;;;;;;17.34;97.96;92823.03;5005704;28;20182;-74
2022/07/09 07:00:48;;;;;;;10.30;9.70;;;;;;;16.86;97.29;92811.94;5005374;28;20235;-74
2022/07/09 07:03:15;;;;;;;10.40;9.90;;;;;;;16.56;100.00;92823.38;5001389;28;21029;-74
2022/07/09 07:05:40;;;;;;;10.23;9.53;;;;;;;16.98;100.00;92827.88;5002765;28;20196;-72
2022/07/09 07:08:05;;;;;;;10.20;9.63;;;;;;;17.07;100.00;92828.69;5001268;28;20259;-71
2022/07/09 07:10:31;;;;;;;10.77;10.17;;;;;;;17.01;99.09;92832.53;5003206;28;20222;-72
2022/07/09 07:12:56;;;;;;;10.80;10.20;;;;;;;16.60;100.00;92829.63;5006802;28;20195;-71
2022/07/09 07:15:22;;;;;;;9.53;9.00;;;;;;;17.00;100.00;92831.00;5003422;28;20191;-73
2022/07/09 07:17:48;;;;;;;10.40;9.80;;;;;;;17.01;99.47;92821.97;5003094;28;20219;-72
2022/07/09 07:20:14;;;;;;;10.03;9.53;;;;;;;17.19;98.65;92822.75;5002446;28;20189;-74
2022/07/09 07:22:39;;;;;;;10.60;9.90;;;;;;;17.22;96.33;92832.66;5002527;28;20823;-73
2022/07/09 07:25:05;;;;;;;9.43;8.93;;;;;;;17.14;96.94;92834.25;5002746;28;20188;-72
2022/07/09 07:27:31;;;;;;;10.20;9.60;;;;;;;16.95;97.44;92817.22;5000915;28;20233;-72
2022/07/09 07:29:56;;;;;;;10.50;9.80;;;;;;;17.44;96.42;92827.22;4999994;28;20215;-72
2022/07/09 07:32:21;;;;;;;9.50;9.00;;;;;;;17.85;95.86;92821.34;4999630;28;20221;-73
2022/07/09 07:34:47;;;;;;;10.37;9.83;;;;;;;17.68;96.38;92818.78;4999516;28;20181;-73
2022/07/09 07:37:12;;;;;;;9.53;9.03;;;;;;;17.30;95.48;92827.41;4998202;28;20231;-74
2022/07/09 07:39:37;;;;;;;10.00;9.40;;;;;;;16.96;97.11;92816.91;5001122;28;20243;-73
2022/07/09 07:42:03;;;;;;;9.53;9.03;;;;;;;17.30;98.42;92831.88;5000980;28;20207;-71
2022/07/09 07:44:29;;;;;;;9.23;8.63;;;;;;;18.18;95.29;92830.97;5000917;28;20216;-70
2022/07/09 07:46:54;;;;;;;9.47;8.97;;;;;;;18.47;91.44;92832.88;5001141;28;20227;-71
2022/07/09 07:49:20;;;;;;;9.27;8.87;;;;;;;18.34;87.50;92828.53;4981318;28;20321;-71
2022/07/09 07:51:45;;;;;;;10.50;9.90;;;;;;;18.11;89.90;92814.06;5002319;28;20222;-73
2022/07/09 07:54:11;;;;;;;10.10;9.60;;;;;;;17.89;91.56;92832.81;5000541;28;20196;-73
2022/07/09 07:56:38;;;;;;;9.63;9.13;;;;;;;17.93;92.78;92816.00;5000564;28;20235;-71
2022/07/09 07:59:03;;;;;;;9.47;8.77;;;;;;;18.02;91.61;92826.56;5001982;28;20203;-71
2022/07/09 08:01:29;;;;;;;9.93;9.27;;;;;;;17.82;92.96;92838.59;5000933;28;20293;-69
2022/07/09 08:03:55;;;;;;;9.13;8.73;;;;;;;17.80;92.51;92830.22;4999596;28;20277;-71
2022/07/09 08:06:22;;;;;;;10.37;9.77;;;;;;;17.87;91.93;92812.00;5000169;28;20259;-73
2022/07/09 08:08:47;;;;;;;9.13;8.63;;;;;;;18.13;92.14;92833.81;5002348;28;20236;-71
2022/07/09 08:11:13;;;;;;;9.30;8.80;;;;;;;18.81;90.19;92845.84;5001554;28;20221;-72
2022/07/09 08:13:39;;;;;;;10.60;9.90;;;;;;;19.04;87.98;92841.78;4999194;28;20182;-69
2022/07/09 08:16:06;;;;;;;10.20;9.60;;;;;;;19.19;88.47;92838.53;5001391;28;20232;-71
2022/07/09 08:18:31;;;;;;;10.90;10.20;;;;;;;19.08;86.91;92832.09;5003106;28;20195;-74
2022/07/09 08:20:57;;;;;;;10.60;10.00;;;;;;;18.69;86.80;92840.50;5002521;28;20239;-71
2022/07/09 08:23:22;;;;;;;9.83;9.20;;;;;;;19.10;85.38;92829.88;4999907;28;20228;-72
2022/07/09 08:25:49;;;;;;;12.47;11.53;;;;;;;19.22;85.13;92811.41;4999682;28;20345;-71
2022/07/09 08:28:15;;;;;;;9.20;8.57;;;;;;;19.58;84.91;92831.97;4987073;28;20207;-72
2022/07/09 08:30:40;;;;;;;10.30;9.70;;;;;;;18.91;84.15;92838.28;5001537;28;20209;-72
2022/07/09 08:33:05;;;;;;;10.70;10.07;;;;;;;18.88;85.56;92832.88;4998873;28;21140;-71
2022/07/09 08:35:31;;;;;;;11.50;10.60;;;;;;;18.61;85.52;92833.38;4988583;28;20359;-73
2022/07/09 08:37:56;;;;;;;10.60;9.83;;;;;;;19.06;85.45;92834.28;4990992;28;20195;-74
2022/07/09 08:40:25;;;;;;;10.43;9.77;;;;;;;19.18;84.06;92831.69;5001542;28;20217;-73
2022/07/09 08:42:53;;;;;;;9.73;9.13;;;;;;;19.16;85.78;92845.25;4978547;28;20308;-72
2022/07/09 08:45:20;;;;;;;9.57;9.03;;;;;;;18.74;87.30;92849.00;4980584;28;20195;-73
2022/07/09 08:47:47;;;;;;;10.27;9.67;;;;;;;19.18;87.28;92852.84;4999773;28;20218;-73
2022/07/09 08:50:13;;;;;;;10.43;9.83;;;;;;;18.57;89.14;92838.53;5000604;28;20209;-73
2022/07/09 08:52:41;;;;;;;10.63;9.93;;;;;;;18.31;90.60;92845.84;5003011;28;20228;-72
2022/07/09 08:55:08;;;;;;;10.60;9.90;;;;;;;17.63;91.27;92813.66;5003366;28;20186;-73
2022/07/09 08:57:34;;;;;;;11.13;10.30;;;;;;;17.81;91.36;92852.09;5003877;28;20238;-72
2022/07/09 09:00:03;;;;;;;11.03;10.17;;;;;;;18.24;89.45;92855.38;4989544;28;20203;-72
2022/07/09 09:02:36;;;;;;;11.73;11.03;;;;;;;17.95;89.05;92847.41;5005954;28;20208;-75
2022/07/09 09:05:15;;;;;;;10.80;10.10;;;;;;;18.36;88.80;92842.22;5002940;28;20204;-74
2022/07/09 09:07:41;;;;;;;10.70;10.10;;;;;;;18.53;85.32;92844.78;5005543;28;20320;-74
2022/07/09 09:10:06;;;;;;;9.97;9.37;;;;;;;18.77;86.88;92843.06;5003132;28;20229;-74
2022/07/09 09:12:32;;;;;;;11.03;10.17;;;;;;;18.88;84.03;92838.16;5004893;28;20228;-75
2022/07/09 09:14:57;;;;;;;12.07;10.90;;;;;;;19.02;85.00;92843.97;4987518;28;20366;-73
2022/07/09 09:17:23;;;;;;;11.33;10.33;;;;;;;19.30;84.84;92857.47;4986968;28;20233;-74
2022/07/09 09:19:48;;;;;;;11.33;10.40;;;;;;;18.95;84.17;92854.31;5002777;28;20198;-73
2022/07/09 09:22:17;;;;;;;9.73;9.13;;;;;;;18.84;85.71;92847.84;5003266;28;20256;-73
2022/07/09 09:24:43;;;;;;;10.80;9.90;;;;;;;18.71;88.21;92854.94;5003860;28;20202;-73
2022/07/09 09:27:09;;;;;;;11.70;10.90;;;;;;;18.36;87.95;92827.16;5001568;28;20251;-72
2022/07/09 09:29:39;;;;;;;11.10;10.33;;;;;;;18.34;90.08;92839.91;5004060;28;20215;-72
2022/07/09 09:32:11;;;;;;;11.13;10.13;;;;;;;17.90;93.00;92843.06;5003398;28;20247;-72
2022/07/09 09:34:36;;;;;;;11.20;10.50;;;;;;;17.93;92.49;92839.03;5006133;28;20231;-73
2022/07/09 09:37:02;;;;;;;11.13;10.43;;;;;;;17.73;93.42;92815.97;5005217;28;20244;-73
2022/07/09 09:39:29;;;;;;;12.87;11.97;;;;;;;17.47;95.84;92830.03;5006651;28;20228;-73
2022/07/09 09:42:00;;;;;;;12.87;11.77;;;;;;;17.25;98.28;92822.28;5003101;28;20229;-73
2022/07/09 09:44:31;;;;;;;12.43;11.27;;;;;;;16.85;100.00;92813.03;5002320;28;20193;-74
2022/07/09 09:46:57;;;;;;;13.00;12.07;;;;;;;17.34;100.00;92838.88;5003283;28;20233;-74
2022/07/09 09:49:24;;;;;;;12.87;11.70;;;;;;;17.39;100.00;92814.16;5002591;28;20217;-75
2022/07/09 09:52:09;;;;;;;13.70;12.70;;;;;;;17.37;100.00;92840.09;5004449;28;20219;-74
2022/07/09 09:54:37;;;;;;;13.47;12.37;;;;;;;17.20;100.00;92816.38;5003078;28;20210;-74
2022/07/09 09:57:10;;;;;;;12.57;11.67;;;;;;;17.70;100.00;92837.72;4992225;28;20294;-73
2022/07/09 09:59:39;;;;;;;12.20;11.33;;;;;;;17.68;100.00;92837.25;5005073;28;20187;-73
2022/07/09 10:02:11;;;;;;;12.80;11.93;;;;;;;17.52;100.00;92840.41;4999553;28;20240;-72
2022/07/09 10:04:39;;;;;;;11.83;11.03;;;;;;;17.51;100.00;92812.44;5004716;28;20196;-74
2022/07/09 10:07:08;;;;;;;13.73;12.83;;;;;;;17.28;100.00;92844.59;5002151;28;20227;-73
2022/07/09 10:09:33;;;;;;;13.90;12.90;;;;;;;17.51;100.00;92843.34;5003764;28;20203;-74
2022/07/09 10:11:59;;;;;;;13.67;12.77;;;;;;;17.59;100.00;92830.13;5001667;28;20231;-73
2022/07/09 10:14:24;;;;;;;14.37;13.37;;;;;;;17.86;100.00;92844.03;5003110;28;20199;-72
2022/07/09 10:16:51;;;;;;;15.50;14.40;;;;;;;18.01;100.00;92838.22;5002592;28;20239;-73
2022/07/09 10:19:32;;;;;;;15.10;14.00;;;;;;;18.10;100.00;92855.56;5001208;28;20195;-73
2022/07/09 10:21:59;;;;;;;13.97;12.93;;;;;;;17.89;96.83;92856.59;4999600;28;20225;-74
2022/07/09 10:24:25;;;;;;;12.40;11.60;;;;;;;18.15;97.81;92852.75;5003876;28;20184;-73
2022/07/09 10:26:51;;;;;;;11.47;10.53;;;;;;;18.27;96.24;92838.88;5003475;28;20244;-73
2022/07/09 10:29:18;;;;;;;11.47;10.70;;;;;;;18.19;94.43;92844.97;5000979;28;20248;-73
2022/07/09 10:31:45;;;;;;;11.97;11.13;;;;;;;17.72;96.58;92824.97;5000522;28;20233;-73
2022/07/09 10:34:25;;;;;;;12.43;10.87;;;;;;;18.13;96.04;92851.53;5005058;28;20205;-73
2022/07/09 10:36:58;;;;;;;11.40;10.60;;;;;;;17.99;95.86;92848.31;5002248;28;20224;-75
2022/07/09 10:39:24;;;;;;;10.27;9.57;;;;;;;18.21;94.04;92851.47;5001984;28;20192;-73
2022/07/09 10:42:22;;;;;;;12.03;11.17;;;;;;;17.99;95.52;92850.97;5002619;28;20243;-72
2022/07/09 10:44:51;;;;;;;11.37;10.60;;;;;;;17.72;98.35;92848.72;5000358;28;20208;-72
2022/07/09 10:47:17;;;;;;;11.57;10.77;;;;;;;17.22;100.00;92840.59;5001636;28;20224;-72
2022/07/09 10:49:43;;;;;;;12.03;11.23;;;;;;;17.23;100.00;92828.97;5001362;28;20208;-72
2022/07/09 10:52:09;;;;;;;11.90;11.10;;;;;;;17.48;100.00;92851.91;5002326;28;20242;-72
2022/07/09 10:54:45;;;;;;;12.40;11.57;;;;;;;17.16;100.00;92828.66;4999917;28;20198;-72
2022/07/09 10:57:13;;;;;;;11.20;10.40;;;;;;;17.44;99.95;92835.16;5001624;28;20227;-73
2022/07/09 10:59:38;;;;;;;13.90;12.73;;;;;;;17.46;100.00;92856.72;4985148;28;20207;-71
2022/07/09 11:02:04;;;;;;;11.37;10.73;;;;;;;17.43;99.80;92844.88;4998342;28;20232;-72
2022/07/09 11:04:31;;;;;;;10.23;9.63;;;;;;;16.89;100.00;92848.22;5002990;28;20191;-72
2022/07/09 11:06:57;;;;;;;9.60;9.10;;;;;;;16.64;100.00;92862.16;5000363;28;20258;-72
2022/07/09 11:09:30;;;;;;;9.40;8.90;;;;;;;16.68;100.00;92857.06;5001705;28;20196;-72
2022/07/09 11:11:56;;;;;;;9.83;9.33;;;;;;;16.64;100.00;92854.25;4998196;28;20240;-72
2022/07/09 11:14:21;;;;;;;10.50;9.90;;;;;;;16.51;100.00;92855.19;5001047;28;20196;-72
2022/07/09 11:16:54;;;;;;;10.77;10.17;;;;;;;16.27;100.00;92852.16;5002780;28;20751;-71